createdAt,value
2023-01-04T00:01:26.242Z,8.18
2023-01-04T00:03:54.680Z,7.60
2023-01-04T00:06:23.943Z,8.27
2023-01-04T00:08:52.329Z,7.78
2023-01-04T00:11:23.116Z,8.48
2023-01-04T00:13:57.056Z,9.25
2023-01-04T00:16:28.271Z,9.10
2023-01-04T00:18:58.031Z,8.93
2023-01-04T00:21:33.915Z,9.20
2023-01-04T00:24:11.974Z,10.15
2023-01-04T00:26:40.369Z,10.07
2023-01-04T00:29:11.183Z,11.20
2023-01-04T00:31:40.549Z,9.90
2023-01-04T00:34:08.980Z,11.02
2023-01-04T00:36:37.473Z,8.85
2023-01-04T00:39:09.117Z,8.48
2023-01-04T00:42:01.991Z,8.20
2023-01-04T00:44:26.785Z,8.07
2023-01-04T00:46:55.315Z,7.72
2023-01-04T00:49:29.903Z,7.72
2023-01-04T00:52:03.283Z,7.68
2023-01-04T00:54:31.803Z,7.50
2023-01-04T00:57:00.180Z,7.57
2023-01-04T00:59:31.421Z,6.25
2023-01-04T01:02:00.115Z,7.50
2023-01-04T01:04:28.592Z,7.15
2023-01-04T01:07:00.508Z,6.13
2023-01-04T01:09:28.818Z,7.10
2023-01-04T01:11:57.103Z,6.30
2023-01-04T01:14:26.779Z,5.85
2023-01-04T01:16:58.447Z,6.18
2023-01-04T01:22:53.263Z,6.28
2023-01-04T01:25:21.777Z,6.78
2023-01-04T01:28:09.226Z,6.47
2023-01-04T01:31:08.796Z,6.28
2023-01-04T01:33:39.149Z,5.68
2023-01-04T01:36:08.906Z,6.07
2023-01-04T01:38:40.572Z,6.25
2023-01-04T01:41:13.217Z,7.10
2023-01-04T01:43:54.728Z,7.47
2023-01-04T01:46:42.078Z,7.20
2023-01-04T02:03:39.570Z,6.90
2023-01-04T02:07:13.308Z,5.75
2023-01-04T02:09:42.891Z,6.47
2023-01-04T02:12:17.962Z,6.63
2023-01-04T02:14:50.315Z,7.63
2023-01-04T02:17:18.506Z,6.22
2023-01-04T02:20:14.156Z,5.78
2023-01-04T02:23:19.092Z,7.85
2023-01-04T02:26:10.238Z,8.95
2023-01-04T02:28:52.245Z,8.35
2023-01-04T02:31:26.774Z,6.65
2023-01-04T02:34:19.912Z,9.05
2023-01-04T02:37:15.301Z,9.25
2023-01-04T02:40:17.161Z,6.43
2023-01-04T02:46:04.173Z,6.82
2023-01-04T02:48:58.460Z,9.90
2023-01-04T02:51:35.200Z,9.55
2023-01-04T02:54:22.665Z,7.82
2023-01-04T02:56:50.871Z,8.90
2023-01-04T02:59:57.216Z,9.05
2023-01-04T03:03:21.817Z,9.80
2023-01-04T03:06:19.180Z,6.07
2023-01-04T03:09:06.066Z,10.52
2023-01-04T03:12:09.734Z,8.82
2023-01-04T03:14:45.097Z,4.47
2023-01-04T03:17:15.920Z,5.88
2023-01-04T03:19:57.859Z,4.97
2023-01-04T03:22:52.533Z,10.13
2023-01-04T03:25:44.790Z,12.73
2023-01-04T03:28:33.178Z,14.73
2023-01-04T03:31:30.303Z,11.75
2023-01-04T03:34:17.299Z,12.82
2023-01-04T03:37:01.664Z,14.68
2023-01-04T03:40:06.515Z,5.68
2023-01-04T03:43:16.275Z,5.30
2023-01-04T03:46:11.673Z,13.25
2023-01-04T03:48:51.921Z,12.48
2023-01-04T03:51:33.523Z,14.07
2023-01-04T03:56:37.166Z,13.15
2023-01-04T03:59:06.576Z,14.23
2023-01-04T04:01:36.323Z,14.65
2023-01-04T04:04:23.066Z,6.32
2023-01-04T04:07:10.127Z,6.70
2023-01-04T04:09:38.392Z,5.18
2023-01-04T04:12:06.812Z,8.52
2023-01-04T04:14:35.309Z,12.27
2023-01-04T04:17:03.796Z,12.90
2023-01-04T04:19:32.109Z,5.82
2023-01-04T04:22:00.371Z,14.60
2023-01-04T04:24:29.014Z,11.70
2023-01-04T04:26:57.270Z,8.20
2023-01-04T04:29:26.669Z,13.07
2023-01-04T04:31:55.060Z,13.40
2023-01-04T04:34:23.450Z,13.45
2023-01-04T04:36:51.763Z,14.18
2023-01-04T04:39:20.050Z,14.45
2023-01-04T04:41:48.267Z,13.93
2023-01-04T04:44:21.065Z,14.95
2023-01-04T04:46:50.399Z,14.73
2023-01-04T04:49:19.194Z,17.50
2023-01-04T04:51:48.434Z,17.35
2023-01-04T04:54:20.418Z,20.00
2023-01-04T04:56:50.548Z,18.17
2023-01-04T04:59:18.814Z,18.73
2023-01-04T05:01:47.269Z,19.45
2023-01-04T05:04:17.493Z,14.60
2023-01-04T05:06:46.286Z,4.95
2023-01-04T05:09:15.450Z,19.23
2023-01-04T05:12:02.540Z,19.90
2023-01-04T05:14:30.876Z,9.95
2023-01-04T05:16:59.109Z,19.88
2023-01-04T05:19:27.497Z,22.88
2023-01-04T05:21:55.712Z,6.72
2023-01-04T05:24:24.011Z,5.30
2023-01-04T05:26:52.266Z,10.00
2023-01-04T05:29:39.529Z,19.55
2023-01-04T05:32:07.890Z,22.92
2023-01-04T05:34:36.259Z,23.08
2023-01-04T05:37:04.516Z,23.35
2023-01-04T05:39:32.778Z,23.02
2023-01-04T05:42:19.239Z,23.33
2023-01-04T05:44:47.505Z,13.07
2023-01-04T05:47:15.818Z,25.13
2023-01-04T05:49:44.774Z,20.98
2023-01-04T05:52:13.322Z,15.20
2023-01-04T05:54:42.134Z,19.38
2023-01-04T05:57:11.028Z,23.00
2023-01-04T05:59:42.079Z,23.95
2023-01-04T06:02:17.224Z,18.05
2023-01-04T06:04:45.584Z,20.40
2023-01-04T06:07:14.496Z,20.60
2023-01-04T06:09:43.542Z,22.25
2023-01-04T06:12:12.232Z,27.05
2023-01-04T06:14:41.454Z,24.25
2023-01-04T06:17:10.456Z,23.30
2023-01-04T06:19:39.161Z,22.92
2023-01-04T06:22:07.832Z,16.42
2023-01-04T06:24:36.382Z,20.20
2023-01-04T06:27:04.968Z,19.05
2023-01-04T06:29:33.396Z,15.77
2023-01-04T06:32:02.363Z,19.45
2023-01-04T06:34:31.437Z,20.17
2023-01-04T06:37:00.363Z,19.80
2023-01-04T06:39:28.832Z,12.88
2023-01-04T06:42:02.074Z,20.55
2023-01-04T06:44:34.252Z,25.83
2023-01-04T06:47:02.560Z,8.10
2023-01-04T06:49:31.062Z,15.80
2023-01-04T06:51:59.407Z,19.73
2023-01-04T06:54:27.896Z,24.15
2023-01-04T06:56:56.160Z,19.63
2023-01-04T06:59:24.390Z,23.02
2023-01-04T07:01:52.856Z,20.83
2023-01-04T07:04:21.257Z,24.15
2023-01-04T07:06:49.495Z,14.18
2023-01-04T07:09:17.897Z,24.08
2023-01-04T07:11:46.633Z,11.43
2023-01-04T07:14:14.913Z,6.45
2023-01-04T07:16:43.222Z,21.05
2023-01-04T07:19:11.582Z,14.13
2023-01-04T07:21:39.809Z,16.27
2023-01-04T07:24:08.308Z,26.17
2023-01-04T07:26:36.923Z,23.02
2023-01-04T07:29:21.032Z,13.98
2023-01-04T07:31:51.924Z,13.35
2023-01-04T07:34:22.110Z,25.15
2023-01-04T07:36:51.246Z,27.15
2023-01-04T07:39:20.218Z,18.20
2023-01-04T07:41:49.722Z,28.08
2023-01-04T07:44:22.593Z,29.45
2023-01-04T07:46:51.580Z,28.05
2023-01-04T07:49:20.102Z,32.15
2023-01-04T07:51:49.650Z,12.32
2023-01-04T07:54:19.128Z,10.05
2023-01-04T07:56:48.896Z,27.23
2023-01-04T07:59:18.609Z,29.13
2023-01-04T08:01:46.998Z,8.93
2023-01-04T08:04:16.819Z,19.45
2023-01-04T08:06:47.587Z,8.38
2023-01-04T08:09:15.936Z,25.77
2023-01-04T08:11:44.512Z,26.40
2023-01-04T08:14:13.612Z,26.67
2023-01-04T08:16:43.683Z,25.90
2023-01-04T08:19:21.374Z,28.00
2023-01-04T08:21:49.794Z,29.98
2023-01-04T08:24:22.496Z,17.02
2023-01-04T08:26:50.848Z,25.48
2023-01-04T08:29:20.034Z,8.82
2023-01-04T08:31:48.403Z,27.65
2023-01-04T08:34:16.731Z,9.35
2023-01-04T08:36:51.721Z,10.63
2023-01-04T08:39:20.174Z,16.00
2023-01-04T08:42:18.711Z,19.33
2023-01-04T08:44:45.791Z,29.42
2023-01-04T08:47:14.099Z,29.15
2023-01-04T08:49:42.351Z,28.75
2023-01-04T08:52:10.969Z,23.60
2023-01-04T08:54:39.193Z,18.33
2023-01-04T08:57:07.429Z,19.15
2023-01-04T08:59:35.708Z,19.70
2023-01-04T09:02:05.947Z,14.65
2023-01-04T09:04:34.642Z,22.33
2023-01-04T09:07:03.104Z,22.27
2023-01-04T09:09:31.858Z,24.00
2023-01-04T09:12:00.486Z,13.65
2023-01-04T09:14:28.785Z,8.93
2023-01-04T09:16:57.104Z,22.80
2023-01-04T09:19:25.426Z,20.30
2023-01-04T09:21:53.812Z,20.88
2023-01-04T09:24:22.395Z,21.30
2023-01-04T09:26:50.897Z,22.38
2023-01-04T09:29:19.758Z,19.40
2023-01-04T09:31:48.316Z,19.38
2023-01-04T09:34:17.897Z,17.05
2023-01-04T09:36:48.432Z,21.33
2023-01-04T09:39:23.018Z,18.83
2023-01-04T09:42:05.856Z,21.58
2023-01-04T09:47:31.042Z,20.80
2023-01-04T09:50:25.028Z,15.95
2023-01-04T09:53:14.003Z,18.80
2023-01-04T09:55:48.950Z,20.42
2023-01-04T09:58:40.775Z,20.55
2023-01-04T10:03:43.114Z,20.25
2023-01-04T10:06:13.941Z,17.95
2023-01-04T10:08:43.984Z,20.40
2023-01-04T10:11:32.296Z,19.42
2023-01-04T10:14:15.714Z,20.05
2023-01-04T10:17:14.868Z,14.25
2023-01-04T10:22:46.738Z,21.73
2023-01-04T10:25:52.377Z,12.90
2023-01-04T10:28:47.803Z,20.65
2023-01-04T10:31:39.830Z,19.00
2023-01-04T10:34:18.725Z,19.40
2023-01-04T10:36:49.530Z,20.42
2023-01-04T10:39:21.821Z,19.25
2023-01-04T10:42:35.027Z,18.48
2023-01-04T10:45:12.240Z,21.73
2023-01-04T10:47:56.636Z,9.13
2023-01-04T10:50:49.296Z,18.38
2023-01-04T10:53:45.548Z,10.73
2023-01-04T10:56:25.813Z,7.75
2023-01-04T10:59:07.666Z,17.33
2023-01-04T11:01:56.861Z,17.15
2023-01-04T11:04:34.534Z,19.33
2023-01-04T11:07:24.814Z,14.68
2023-01-04T11:10:14.928Z,12.32
2023-01-04T11:12:43.332Z,13.77
2023-01-04T11:15:11.981Z,6.78
2023-01-04T11:17:40.956Z,7.47
2023-01-04T11:20:09.812Z,18.77
2023-01-04T11:22:49.476Z,10.27
2023-01-04T11:25:37.260Z,19.65
2023-01-04T11:28:50.659Z,9.95
2023-01-04T11:31:24.118Z,18.90
2023-01-04T11:34:04.840Z,19.85
2023-01-04T11:36:33.008Z,21.38
2023-01-04T11:39:01.215Z,21.70
2023-01-04T11:41:29.814Z,22.92
2023-01-04T11:44:07.005Z,21.90
2023-01-04T11:46:35.876Z,22.60
2023-01-04T11:49:04.170Z,8.70
2023-01-04T11:51:35.090Z,22.63
2023-01-04T11:54:18.719Z,21.65
2023-01-04T11:57:05.821Z,8.18
2023-01-04T11:59:39.196Z,22.42
2023-01-04T12:02:50.497Z,20.73
2023-01-04T12:05:26.212Z,9.75
2023-01-04T12:07:57.815Z,25.08
2023-01-04T12:10:28.146Z,17.35
2023-01-04T12:12:57.998Z,27.92
2023-01-04T12:15:52.358Z,8.45
2023-01-04T12:18:29.473Z,25.58
2023-01-04T12:20:58.580Z,18.05
2023-01-04T12:23:27.126Z,13.77
2023-01-04T12:25:56.807Z,21.73
2023-01-04T12:28:35.728Z,21.90
2023-01-04T12:31:22.737Z,23.85
2023-01-04T12:33:52.564Z,22.35
2023-01-04T12:36:40.628Z,8.68
2023-01-04T12:39:15.037Z,20.67
2023-01-04T12:42:03.358Z,11.10
2023-01-04T12:44:40.661Z,17.98
2023-01-04T12:47:45.982Z,17.95
2023-01-04T12:50:25.796Z,8.65
2023-01-04T12:53:28.330Z,15.23
2023-01-04T12:55:55.736Z,13.00
2023-01-04T12:58:57.979Z,13.45
2023-01-04T13:01:27.820Z,8.38
2023-01-04T13:04:05.139Z,7.95
2023-01-04T13:06:43.648Z,13.57
2023-01-04T13:09:25.361Z,7.60
2023-01-04T13:12:09.668Z,11.55
2023-01-04T13:14:44.677Z,8.13
2023-01-04T13:17:18.317Z,8.95
2023-01-04T13:19:46.979Z,6.97
2023-01-04T13:22:30.297Z,8.90
2023-01-04T13:25:00.964Z,8.05
2023-01-04T13:27:29.382Z,8.73
2023-01-04T13:29:58.524Z,10.63
2023-01-04T13:32:33.415Z,8.07
2023-01-04T13:35:16.347Z,8.23
2023-01-04T13:37:48.978Z,11.98
2023-01-04T13:40:30.604Z,10.32
2023-01-04T13:45:47.403Z,12.82
2023-01-04T13:48:19.298Z,11.23
2023-01-04T13:51:17.252Z,11.65
2023-01-04T13:53:58.949Z,14.23
2023-01-04T13:58:56.937Z,13.50
2023-01-04T14:01:35.985Z,12.52
2023-01-04T14:04:08.297Z,12.50
2023-01-04T14:06:48.633Z,13.77
2023-01-04T14:09:30.219Z,17.58
2023-01-04T14:12:08.872Z,18.15
2023-01-04T14:14:43.043Z,17.83
2023-01-04T14:17:16.266Z,18.00
2023-01-04T14:19:56.789Z,17.77
2023-01-04T14:22:36.364Z,18.23
2023-01-04T14:25:33.601Z,18.45
2023-01-04T14:28:20.655Z,19.90
2023-01-04T14:31:14.715Z,19.10
2023-01-04T14:33:48.713Z,18.45
2023-01-04T14:36:31.953Z,16.90
2023-01-04T14:39:09.473Z,16.55
2023-01-04T14:41:52.807Z,18.98
2023-01-04T14:44:28.576Z,16.92
2023-01-04T14:47:01.527Z,16.52
2023-01-04T14:49:30.263Z,18.83
2023-01-04T14:52:03.868Z,18.67
2023-01-04T14:54:34.425Z,20.58
2023-01-04T14:57:02.733Z,20.35
2023-01-04T14:59:31.079Z,20.52
2023-01-04T15:01:59.870Z,19.05
2023-01-04T15:04:28.429Z,14.27
2023-01-04T15:06:59.768Z,13.75
2023-01-04T15:09:31.670Z,14.52
2023-01-04T15:12:00.022Z,15.95
2023-01-04T15:14:28.296Z,16.40
2023-01-04T15:16:56.539Z,15.45
2023-01-04T15:19:24.792Z,13.98
2023-01-04T15:21:53.018Z,14.48
2023-01-04T15:24:21.383Z,15.48
2023-01-04T15:26:50.059Z,14.40
2023-01-04T15:29:18.483Z,14.95
2023-01-04T15:31:47.377Z,12.38
2023-01-04T15:34:15.781Z,16.15
2023-01-04T15:36:44.497Z,11.93
2023-01-04T15:39:17.276Z,12.77
2023-01-04T15:42:03.700Z,12.48
2023-01-04T15:44:32.025Z,12.43
2023-01-04T15:47:00.739Z,11.45
2023-01-04T15:49:31.661Z,11.57
2023-01-04T15:51:59.948Z,11.10
2023-01-04T15:54:31.391Z,11.50
2023-01-04T15:56:59.784Z,11.48
2023-01-04T15:59:28.046Z,11.75
2023-01-04T16:01:56.571Z,11.40
2023-01-04T16:04:25.208Z,12.13
2023-01-04T16:06:53.597Z,12.25
2023-01-04T16:09:21.850Z,11.63
2023-01-04T16:12:08.661Z,13.45
2023-01-04T16:14:36.850Z,13.63
2023-01-04T16:17:05.325Z,14.43
2023-01-04T16:19:35.058Z,11.20
2023-01-04T16:22:03.307Z,13.32
2023-01-04T16:27:20.207Z,13.95
2023-01-04T16:29:51.330Z,12.43
2023-01-04T16:32:19.717Z,14.35
2023-01-04T16:34:49.692Z,10.85
2023-01-04T16:37:18.653Z,11.73
2023-01-04T16:40:05.933Z,13.25
2023-01-04T16:42:34.955Z,13.32
2023-01-04T16:45:03.279Z,9.48
2023-01-04T16:47:40.076Z,8.18
2023-01-04T16:50:08.711Z,12.23
2023-01-04T16:52:36.912Z,8.85
2023-01-04T16:55:05.937Z,10.48
2023-01-04T16:57:34.533Z,11.25
2023-01-04T17:00:02.932Z,10.45
2023-01-04T17:02:31.336Z,10.05
2023-01-04T17:05:01.666Z,12.88
2023-01-04T17:07:33.547Z,10.65
2023-01-04T17:10:02.050Z,13.05
2023-01-04T17:12:48.137Z,12.05
2023-01-04T17:18:06.387Z,11.05
2023-01-04T17:20:34.677Z,8.13
2023-01-04T17:23:03.004Z,9.77
2023-01-04T17:25:31.899Z,8.27
2023-01-04T17:28:00.185Z,9.35
2023-01-04T17:30:29.292Z,7.93
2023-01-04T17:32:57.477Z,5.18
2023-01-04T17:35:25.814Z,5.20
2023-01-04T17:37:54.091Z,5.13
2023-01-04T17:40:23.650Z,2.05
2023-01-04T17:42:52.381Z,1.60
2023-01-04T17:45:21.301Z,0.95
2023-01-04T17:47:49.714Z,0.80
2023-01-04T17:50:19.010Z,0.80
2023-01-04T17:52:51.721Z,0.50
2023-01-04T17:55:21.504Z,0.35
2023-01-04T17:57:49.736Z,0.52
2023-01-04T18:00:18.299Z,0.50
2023-01-04T18:02:46.648Z,0.30
2023-01-04T18:05:17.743Z,0.30
2023-01-04T18:07:46.135Z,0.25
2023-01-04T18:10:26.975Z,0.38
2023-01-04T18:13:04.272Z,0.60
2023-01-04T18:15:36.240Z,0.40
2023-01-04T18:18:12.244Z,0.40
2023-01-04T18:20:41.099Z,0.38
2023-01-04T18:23:18.983Z,0.38
2023-01-04T18:25:52.432Z,0.40
2023-01-04T18:28:22.303Z,0.57
2023-01-04T18:30:51.279Z,0.35
2023-01-04T18:33:19.558Z,0.50
2023-01-04T18:35:47.847Z,0.30
2023-01-04T18:38:16.141Z,0.60
2023-01-04T18:40:44.455Z,0.47
2023-01-04T18:43:12.758Z,0.60
2023-01-04T18:45:44.355Z,0.75
2023-01-04T18:48:12.629Z,0.85
2023-01-04T18:50:40.909Z,0.20
2023-01-04T18:53:09.190Z,0.80
2023-01-04T18:55:40.181Z,0.45
2023-01-04T18:58:08.433Z,0.45
2023-01-04T19:00:36.733Z,0.70
2023-01-04T19:03:05.131Z,0.43
2023-01-04T19:05:33.541Z,0.60
2023-01-04T19:08:03.476Z,0.60
2023-01-04T19:10:31.871Z,0.60
2023-01-04T19:13:00.129Z,0.40
2023-01-04T19:15:28.399Z,0.75
2023-01-04T19:17:58.050Z,0.50
2023-01-04T19:20:26.316Z,0.38
2023-01-04T19:22:54.543Z,0.63
2023-01-04T19:25:28.032Z,0.52
2023-01-04T19:27:56.853Z,0.57
2023-01-04T19:30:25.409Z,0.43
2023-01-04T19:32:54.451Z,0.50
2023-01-04T19:35:22.868Z,0.50
2023-01-04T19:37:51.142Z,0.57
2023-01-04T19:40:19.494Z,0.32
2023-01-04T19:42:48.015Z,1.17
2023-01-04T19:45:16.973Z,0.38
2023-01-04T19:47:46.273Z,1.20
2023-01-04T19:50:14.639Z,0.70
2023-01-04T19:52:42.869Z,0.63
2023-01-04T19:55:11.913Z,0.40
2023-01-04T19:57:40.171Z,0.82
2023-01-04T20:00:09.462Z,0.82
2023-01-04T20:02:38.099Z,0.80
2023-01-04T20:05:07.812Z,0.63
2023-01-04T20:07:36.119Z,0.70
2023-01-04T20:10:09.046Z,0.80
2023-01-04T20:12:40.535Z,0.70
2023-01-04T20:15:09.397Z,0.60
2023-01-04T20:17:37.781Z,0.73
2023-01-04T20:20:06.401Z,0.73
2023-01-04T20:22:34.677Z,0.85
2023-01-04T20:25:02.907Z,0.80
2023-01-04T20:27:31.517Z,0.52
2023-01-04T20:29:59.994Z,0.70
2023-01-04T20:32:28.353Z,0.60
2023-01-04T20:34:56.602Z,0.80
2023-01-04T20:37:25.134Z,0.82
2023-01-04T20:39:53.395Z,0.80
2023-01-04T20:42:40.225Z,0.60
2023-01-04T20:45:09.062Z,0.50
2023-01-04T20:47:37.300Z,0.90
2023-01-04T20:50:05.926Z,0.40
2023-01-04T20:52:36.875Z,0.60
2023-01-04T20:55:05.597Z,0.70
2023-01-04T20:57:34.004Z,0.70
2023-01-04T21:00:02.238Z,0.75
2023-01-04T21:02:35.935Z,0.70
2023-01-04T21:05:06.564Z,0.70
2023-01-04T21:07:34.900Z,0.68
2023-01-04T21:10:03.228Z,0.63
2023-01-04T21:12:31.570Z,0.80
2023-01-04T21:15:00.175Z,1.05
2023-01-04T21:17:28.486Z,0.65
2023-01-04T21:19:56.742Z,1.00
2023-01-04T21:22:25.497Z,0.80
2023-01-04T21:24:53.815Z,1.08
2023-01-04T21:27:22.172Z,1.35
2023-01-04T21:29:50.413Z,0.70
2023-01-04T21:32:19.671Z,0.95
2023-01-04T21:34:47.888Z,0.95
2023-01-04T21:37:16.278Z,0.60
2023-01-04T21:39:44.543Z,0.80
2023-01-04T21:42:12.783Z,0.80
2023-01-04T21:44:41.136Z,1.10
2023-01-04T21:47:09.389Z,0.70
2023-01-04T21:49:37.703Z,1.10
2023-01-04T21:52:05.987Z,1.23
2023-01-04T21:54:34.222Z,0.80
2023-01-04T21:57:02.501Z,0.70
2023-01-04T21:59:30.960Z,0.90
2023-01-04T22:01:59.349Z,0.70
2023-01-04T22:04:27.776Z,0.77
2023-01-04T22:06:56.076Z,0.43
2023-01-04T22:09:24.734Z,0.75
2023-01-04T22:11:53.066Z,0.80
2023-01-04T22:14:21.469Z,0.80
2023-01-04T22:16:49.711Z,0.63
2023-01-04T22:19:17.994Z,0.73
2023-01-04T22:21:46.306Z,0.60
2023-01-04T22:24:15.527Z,0.52
2023-01-04T22:26:45.415Z,0.40
2023-01-04T22:29:13.818Z,0.50
2023-01-04T22:31:42.349Z,1.15
2023-01-04T22:34:10.678Z,0.50
2023-01-04T22:36:39.023Z,0.30
2023-01-04T22:39:07.887Z,0.45
2023-01-04T22:41:37.120Z,0.50
2023-01-04T22:44:07.265Z,0.30
2023-01-04T22:46:37.381Z,1.08
2023-01-04T22:49:05.828Z,0.80
2023-01-04T22:51:34.208Z,0.50
2023-01-04T22:54:06.462Z,0.30
2023-01-04T22:56:35.168Z,0.65
2023-01-04T22:59:03.567Z,0.30
2023-01-04T23:01:35.077Z,0.50
2023-01-04T23:04:04.063Z,0.35
2023-01-04T23:06:33.551Z,0.52
2023-01-04T23:09:08.691Z,0.30
2023-01-04T23:11:38.101Z,0.80
2023-01-04T23:14:08.596Z,0.57
2023-01-04T23:16:37.051Z,0.43
2023-01-04T23:19:07.356Z,0.60
2023-01-04T23:21:36.982Z,0.65
2023-01-04T23:24:06.393Z,0.77
2023-01-04T23:26:35.183Z,0.90
2023-01-04T23:29:04.353Z,1.23
2023-01-04T23:31:34.880Z,1.15
2023-01-04T23:34:05.689Z,0.97
2023-01-04T23:36:40.138Z,0.77
2023-01-04T23:39:13.190Z,0.88
2023-01-04T23:41:47.983Z,0.95
2023-01-04T23:47:08.140Z,0.80
2023-01-04T23:49:38.441Z,1.02
2023-01-04T23:52:10.651Z,1.42
2023-01-04T23:54:42.391Z,0.82
2023-01-04T23:57:16.268Z,1.17
2023-01-04T23:59:53.070Z,1.30
